Language selection

My Weather Profile Weather Topics  | 

Juan de Fuca Strait - central strait: Past 24 Hour Conditions

 

South Brooks - 46132

11:00 PM PDT 26 May 2022Buoy position: 49.46N 127.53W
Disclaimer

This table is a summary of hourly weather conditions for the past 24 hours.
Please note that these observations might not always be representative of weather conditions over their associated marine area.

Date / Time
(PDT)
Wind(knots) Wave height(m) Wave period(s) Pressure(kPa) Air tempC) Water tempC)
26 May 2022
23:00 SSE 17 gust 22 2.1 7.1 100.3 10 9
22:00 S 15 gust 18 2.3 6.5 100.3 10 9
21:00 SE 23 gust 29 2.5 6.5 100.3 11 9
20:00 SE 23 gust 29 2.1 5.9 100.4 11 9
19:00 SE 23 gust 29 2.1 5.7 100.4 11 9
18:00 SE 21 gust 25 1.8 5.9 100.5 11 9
17:00 SE 22 gust 28 1.6 5.0 100.6 11 10
16:00 SE 21 gust 25 1.3 4.9 100.7 11 10
15:00 SE 13 gust 17 1.2 4.5 100.8 11 10
14:00 SE 10 gust 12 1.0 8.7 100.9 11 10
13:00 SE 12 gust 15 1.0 9.1 100.9 11 10
12:00 SE 14 gust 16 1.0 8.0 101.0 11 10
11:00 ESE 12 gust 14 1.2 8.3 101.0 11 10
10:00 SE 10 gust 13 1.0 6.9 101.1 11 9
9:00 SE 9 gust 11 1.1 7.7 101.1 10 9
8:00 SE 8 gust 10 1.3 8.3 101.2 10 9
7:00 ESE 7 gust 9 1.3 8.7 101.2 10 10
6:00 ESE 7 gust 9 1.2 5.9 101.3 10 10
5:00 ESE 4 gust 6 1.3 8.7 101.3 10 10
4:00 SE 4 gust 6 1.5 8.3 101.3 10 10
3:00 SE 4 gust 5 1.6 8.0 101.4 9 10
2:00 SE 4 gust 5 1.5 8.3 101.5 10 10
1:00 ESE 5 gust 6 1.9 9.1 101.5 10 10
0:00 ESE 4 gust 6 1.8 8.0 101.6 10 10
25 May 2022
23:00 N/A N/A N/A N/A N/A N/A

Zoom-in to make a selection

Map of Pacific - South Coast marine weather areas South Nomad - 46036 Sentry Shoal - 46131 South Brooks - 46132 Halibut Bank - 46146 South Moresby - 46147 South Hecate Strait - 46185 West Sea Otter - 46204 La Perouse Bank - 46206 East Dellwood - 46207 Georgia Strait - 46303 English Bay - 46304 Discovery Island Esquimalt Harbour Kelp Reefs Malahat Race Rocks Lightstation Saturna Island Sheringham Point University of Victoria Victoria Gonzales Victoria Int'l Airport Ballenas Islands Campbell River Airport Comox Airport Entrance Island Fanny Island Nanaimo Airport Port Hardy Airport Sisters Islets Estevan Point Port Alberni Sartine Island Solander Island Tofino Airport Grief Point Howe Sound - Pam Rocks Powell River Airport Sechelt Squamish Airport Cape St.James Bella Bella Airport Bella Coola Airport Cathedral Point Herbert Island Point Atkinson Sand Heads Lightstation Tsawwassen Ferry Terminal Vancouver Int'l Airport Vancouver Harbour West Vancouver
Legend:
buoy Buoy
land station Land Station

Pacific - South Coast Area

Another Region

What we are doing

Features

Hello Weather

Hello Weather: our upgraded telephone weather service is here. 1-833-794-3556 or 1-833-79HELLO.

Date modified: